Time;durP1;ratioP1;P1;durP2;ratioP2;P2;SDS_P1;SDS_P2;PMS_P1;PMS_P2;Temp;Humidity;BMP_temperature;BMP_pressure;BME280_temperature;BME280_humidity;BME280_pressure;Samples;Min_cycle;Max_cycle;Signal;HPM_P1;HPM_P2
2022/06/18 00:01:33;;;;;;;3.28;2.65;;;;;;;21.93;59.85;101683.19;4977162;28;20030;-91
2022/06/18 00:04:18;;;;;;;5.63;2.72;;;;;;;21.84;60.21;101679.69;4979709;28;20028;-91
2022/06/18 00:06:59;;;;;;;5.22;2.58;;;;;;;21.76;59.58;101682.34;4967898;28;20130;-91
2022/06/18 00:09:44;;;;;;;6.25;2.80;;;;;;;21.77;59.45;101683.19;4969957;28;20065;-92
2022/06/18 00:15:06;;;;;;;4.15;2.50;;;;;;;21.61;61.07;101677.81;4939182;29;20066;-90
2022/06/18 00:17:32;;;;;;;5.90;2.80;;;;;;;21.60;61.58;101671.59;4978582;28;20022;-91
2022/06/18 00:19:57;;;;;;;3.28;2.50;;;;;;;21.53;61.12;101673.28;4996539;28;20015;-90
2022/06/18 00:22:23;;;;;;;3.95;2.88;;;;;;;21.50;60.85;101681.63;4990651;28;20046;-90
2022/06/18 00:24:49;;;;;;;6.03;2.85;;;;;;;21.45;62.23;101667.91;4976997;28;20283;-91
2022/06/18 00:27:16;;;;;;;5.25;2.80;;;;;;;21.40;62.32;101676.44;4976338;28;20023;-90
2022/06/18 00:29:47;;;;;;;5.95;2.78;;;;;;;21.34;62.25;101665.53;4991245;28;20031;-92
2022/06/18 00:32:12;;;;;;;3.42;2.90;;;;;;;21.30;62.27;101665.03;4954266;29;20039;-90
2022/06/18 00:34:38;;;;;;;3.45;2.75;;;;;;;21.27;62.83;101666.22;4952290;29;20058;-91
2022/06/18 00:37:05;;;;;;;5.10;2.88;;;;;;;21.22;62.98;101665.84;4952826;29;20312;-91
2022/06/18 00:39:31;;;;;;;5.00;2.92;;;;;;;21.17;63.08;101661.94;4952831;29;20023;-90
2022/06/18 00:42:04;;;;;;;5.43;3.00;;;;;;;21.16;63.08;101668.28;4952181;29;20031;-91
2022/06/18 00:44:39;;;;;;;3.85;3.00;;;;;;;21.14;62.94;101670.28;4953409;28;20034;-91
2022/06/18 00:47:26;;;;;;;3.88;3.20;;;;;;;21.10;63.12;101669.78;4968696;28;20023;-91
2022/06/18 00:49:54;;;;;;;5.13;3.35;;;;;;;21.05;63.76;101665.91;4953352;28;20069;-91
2022/06/18 00:52:54;;;;;;;4.93;3.05;;;;;;;21.07;61.96;101664.75;4962918;28;20027;-91
2022/06/18 00:55:48;;;;;;;5.45;3.10;;;;;;;21.02;63.02;101667.09;4930618;29;20131;-91
2022/06/18 00:58:38;;;;;;;5.60;3.00;;;;;;;21.00;62.37;101668.25;4952562;29;20495;-91
2022/06/18 01:01:12;;;;;;;5.20;3.20;;;;;;;20.89;63.72;101664.03;4953149;28;20027;-91
2022/06/18 01:03:38;;;;;;;5.70;3.60;;;;;;;20.88;63.68;101660.50;4950928;28;20050;-91
2022/06/18 01:06:16;;;;;;;6.78;3.35;;;;;;;20.89;63.92;101661.34;4951539;29;20015;-91
2022/06/18 01:08:43;;;;;;;5.35;2.90;;;;;;;20.85;64.20;101665.34;4952086;28;20557;-91
2022/06/18 01:11:21;;;;;;;4.55;3.30;;;;;;;20.83;64.50;101656.66;4967347;28;20529;-91
2022/06/18 01:13:47;;;;;;;3.72;3.38;;;;;;;20.76;64.88;101659.09;4966797;28;20425;-91
2022/06/18 01:16:13;;;;;;;5.05;3.08;;;;;;;20.73;64.93;101651.41;4952679;28;20461;-91
2022/06/18 01:18:39;;;;;;;4.95;3.17;;;;;;;20.68;65.68;101653.72;4963323;28;20030;-91
2022/06/18 01:21:30;;;;;;;4.97;3.40;;;;;;;20.70;64.94;101645.53;4970991;28;20041;-90
2022/06/18 01:24:19;;;;;;;7.35;3.42;;;;;;;20.65;64.49;101641.50;4947465;29;20091;-91
2022/06/18 01:26:47;;;;;;;5.20;3.85;;;;;;;20.60;65.67;101640.31;4951265;28;20465;-91
2022/06/18 01:29:13;;;;;;;6.95;3.90;;;;;;;20.56;65.75;101636.28;4952327;29;20426;-91
2022/06/18 01:31:38;;;;;;;9.10;3.83;;;;;;;20.54;65.84;101644.47;4952380;28;20082;-91
2022/06/18 01:34:06;;;;;;;5.43;3.50;;;;;;;20.51;66.43;101651.97;4952022;29;20130;-91
2022/06/18 01:36:34;;;;;;;7.10;3.90;;;;;;;20.49;66.46;101654.78;4953008;28;20031;-91
2022/06/18 01:39:03;;;;;;;6.38;3.80;;;;;;;20.44;67.27;101650.94;4951566;29;20476;-91
2022/06/18 01:41:50;;;;;;;4.60;4.13;;;;;;;20.44;66.53;101662.47;4951785;29;20031;-91
2022/06/18 01:44:39;;;;;;;4.70;3.60;;;;;;;20.40;66.07;101655.72;4952238;29;20043;-91
2022/06/18 01:47:23;;;;;;;4.88;3.83;;;;;;;20.33;66.53;101650.13;4956416;28;20409;-90
2022/06/18 01:50:20;;;;;;;5.45;3.75;;;;;;;20.32;65.87;101647.63;4951822;28;20051;-91
2022/06/18 01:52:59;;;;;;;5.60;3.88;;;;;;;20.18;67.83;101643.69;4951099;28;20073;-91
2022/06/18 01:55:33;;;;;;;6.65;3.85;;;;;;;20.12;68.08;101640.81;4950955;28;20126;-91
2022/06/18 01:58:09;;;;;;;5.20;4.30;;;;;;;20.12;67.88;101640.81;4949789;28;20433;-91
2022/06/18 02:00:35;;;;;;;6.53;4.68;;;;;;;20.10;68.16;101648.16;4953141;28;20039;-91
2022/06/18 02:03:03;;;;;;;5.97;4.35;;;;;;;20.12;68.20;101648.84;4950581;28;20019;-91
2022/06/18 02:05:32;;;;;;;5.82;4.47;;;;;;;20.10;67.84;101643.66;4965446;28;20059;-91
2022/06/18 02:07:59;;;;;;;6.00;4.20;;;;;;;20.06;68.76;101644.13;4965268;28;20047;-92
2022/06/18 02:10:37;;;;;;;6.50;4.45;;;;;;;20.06;68.62;101644.13;4951475;28;20111;-91
2022/06/18 02:13:07;;;;;;;6.75;4.50;;;;;;;19.97;69.31;101637.84;4949712;29;20489;-91
2022/06/18 02:15:39;;;;;;;4.60;4.20;;;;;;;19.94;68.97;101649.69;4951322;28;20031;-91
2022/06/18 02:18:08;;;;;;;5.15;4.38;;;;;;;19.87;69.59;101632.59;4957757;28;20027;-91
2022/06/18 02:20:49;;;;;;;5.55;4.35;;;;;;;19.87;68.93;101642.44;4968402;28;20023;-91
2022/06/18 02:23:16;;;;;;;5.18;4.65;;;;;;;19.83;69.43;101641.91;4969753;28;20085;-91
2022/06/18 02:25:42;;;;;;;4.47;4.07;;;;;;;19.81;70.26;101645.75;4969894;28;20027;-91
2022/06/18 02:28:17;;;;;;;5.40;4.60;;;;;;;19.79;69.86;101645.06;4974701;28;20049;-91
2022/06/18 02:30:49;;;;;;;5.80;4.88;;;;;;;19.75;70.09;101644.53;4931949;29;20098;-90
2022/06/18 02:33:37;;;;;;;6.35;4.32;;;;;;;19.70;69.90;101644.16;4932752;29;20043;-91
2022/06/18 02:36:16;;;;;;;5.68;5.18;;;;;;;19.73;69.27;101646.50;4946251;29;20406;-91
2022/06/18 02:38:43;;;;;;;6.63;4.65;;;;;;;19.65;70.52;101638.44;4950410;29;20031;-90
2022/06/18 02:41:10;;;;;;;5.65;4.65;;;;;;;19.65;70.63;101643.78;4953756;28;20366;-90
2022/06/18 02:43:36;;;;;;;6.72;5.10;;;;;;;19.61;70.11;101637.03;4950618;29;20066;-91
2022/06/18 02:46:02;;;;;;;7.50;4.70;;;;;;;19.63;69.95;101640.41;4950260;29;20074;-91
2022/06/18 02:48:33;;;;;;;5.95;5.30;;;;;;;19.64;70.05;101636.75;4951668;29;20031;-91
2022/06/18 02:51:00;;;;;;;10.38;4.90;;;;;;;19.61;70.13;101631.69;4950985;29;20053;-92
2022/06/18 02:53:27;;;;;;;6.95;5.15;;;;;;;19.56;70.28;101631.31;4950749;29;20031;-91
2022/06/18 02:56:04;;;;;;;5.30;4.90;;;;;;;19.62;69.72;101641.41;4965612;28;20091;-90
2022/06/18 02:58:37;;;;;;;6.93;5.40;;;;;;;19.56;69.87;101628.66;4951793;28;20490;-91
2022/06/18 03:01:10;;;;;;;8.15;5.35;;;;;;;19.58;70.09;101637.34;4951194;29;20059;-91
2022/06/18 03:03:40;;;;;;;7.10;5.43;;;;;;;19.56;70.10;101629.50;4936487;29;20081;-91
2022/06/18 03:06:07;;;;;;;11.35;5.63;;;;;;;19.55;70.34;101626.97;4961483;28;20026;-91
2022/06/18 03:08:34;;;;;;;8.40;5.38;;;;;;;19.50;70.31;101629.22;4954066;29;20118;-91
2022/06/18 03:13:45;;;;;;;10.65;6.10;;;;;;;19.58;69.83;101642.69;4955658;29;20042;-90
2022/06/18 03:16:12;;;;;;;8.73;5.82;;;;;;;19.56;70.16;101644.66;4953459;29;20035;-90
2022/06/18 03:18:40;;;;;;;6.70;5.38;;;;;;;19.57;70.82;101644.50;4982149;28;20041;-91
2022/06/18 03:21:31;;;;;;;7.63;5.75;;;;;;;19.59;69.65;101644.38;4973513;28;20030;-90
2022/06/18 03:23:57;;;;;;;7.32;5.50;;;;;;;19.53;71.15;101645.81;4973549;28;20034;-91
2022/06/18 03:26:24;;;;;;;10.50;5.53;;;;;;;19.53;71.73;101651.16;4973553;28;20389;-91
2022/06/18 03:28:49;;;;;;;7.28;6.07;;;;;;;19.45;71.53;101642.19;4958336;28;20632;-90
2022/06/18 03:31:15;;;;;;;8.40;6.20;;;;;;;19.37;72.08;101642.97;4946559;28;20032;-91
2022/06/18 03:33:41;;;;;;;10.55;6.28;;;;;;;19.38;72.16;101637.47;4934455;29;20046;-91
2022/06/18 03:36:08;;;;;;;9.60;6.40;;;;;;;19.34;71.72;101645.94;4949831;29;20749;-90
2022/06/18 03:38:37;;;;;;;7.60;6.30;;;;;;;19.33;71.83;101649.59;4960014;28;20038;-91
2022/06/18 03:41:02;;;;;;;10.50;6.38;;;;;;;19.36;71.82;101654.63;4953169;28;20027;-91
2022/06/18 03:43:32;;;;;;;8.07;6.05;;;;;;;19.33;71.95;101650.44;4952905;29;20035;-91
2022/06/18 03:46:01;;;;;;;8.57;6.38;;;;;;;19.36;71.85;101655.47;4953432;28;20082;-91
2022/06/18 03:48:46;;;;;;;8.57;6.20;;;;;;;19.34;72.33;101652.13;4947646;28;20118;-91
2022/06/18 03:51:13;;;;;;;7.93;5.70;;;;;;;19.36;72.91;101654.63;4935174;29;20024;-91
2022/06/18 03:53:39;;;;;;;6.88;6.07;;;;;;;19.35;73.14;101647.63;4935182;29;20032;-91
2022/06/18 03:56:10;;;;;;;8.10;6.50;;;;;;;19.33;73.06;101644.25;4936055;29;20394;-90
2022/06/18 03:58:36;;;;;;;6.85;6.07;;;;;;;19.35;73.20;101644.94;4950080;29;20063;-89
2022/06/18 04:01:02;;;;;;;6.28;5.68;;;;;;;19.33;73.23;101647.75;4948227;28;20027;-90
2022/06/18 04:03:27;;;;;;;8.40;6.25;;;;;;;19.31;73.30;101631.06;4960673;28;20429;-91
2022/06/18 04:05:53;;;;;;;7.55;6.15;;;;;;;19.30;73.49;101633.88;4964294;28;20027;-91
2022/06/18 04:08:22;;;;;;;6.95;6.30;;;;;;;19.34;73.37;101635.25;4953067;28;20042;-90
2022/06/18 04:10:50;;;;;;;10.07;6.35;;;;;;;19.40;73.00;101630.16;4954345;29;20404;-91
2022/06/18 04:13:16;;;;;;;8.32;6.03;;;;;;;19.48;73.11;101625.88;4954229;29;20108;-91
2022/06/18 04:15:42;;;;;;;7.15;6.13;;;;;;;19.53;73.48;101628.97;4953845;29;20023;-90
2022/06/18 04:18:09;;;;;;;11.45;6.65;;;;;;;19.58;73.10;101626.66;4953531;28;20118;-91
2022/06/18 04:20:36;;;;;;;8.18;6.13;;;;;;;19.65;72.96;101633.94;4969216;28;20043;-91
2022/06/18 04:23:03;;;;;;;12.45;6.50;;;;;;;19.66;73.10;101632.09;4955562;28;20389;-91
2022/06/18 04:25:32;;;;;;;8.85;6.40;;;;;;;19.63;73.54;101625.25;4969144;28;20470;-90
2022/06/18 04:27:58;;;;;;;12.20;7.15;;;;;;;19.63;72.38;101625.25;4952167;29;20109;-91
2022/06/18 04:30:34;;;;;;;8.77;6.50;;;;;;;19.69;73.04;101631.78;4953151;29;20597;-90
2022/06/18 04:33:00;;;;;;;9.75;6.93;;;;;;;19.69;72.05;101626.47;4953010;29;20035;-90
2022/06/18 04:35:26;;;;;;;8.75;6.85;;;;;;;19.76;71.86;101640.03;4953292;28;20043;-91
2022/06/18 04:37:52;;;;;;;9.88;6.55;;;;;;;19.78;71.65;101632.69;4968086;28;20027;-91
2022/06/18 04:40:21;;;;;;;9.32;7.28;;;;;;;19.78;71.93;101636.22;4952575;29;20066;-91
2022/06/18 04:42:46;;;;;;;12.63;7.88;;;;;;;19.85;71.39;101631.91;4951075;29;20170;-91
2022/06/18 04:45:22;;;;;;;12.25;7.50;;;;;;;19.86;71.70;101630.94;4952294;29;20102;-90
2022/06/18 04:47:48;;;;;;;9.45;7.25;;;;;;;19.92;71.01;101632.97;4952180;28;20149;-90
2022/06/18 04:50:18;;;;;;;12.82;8.15;;;;;;;19.95;71.34;101634.50;4968666;28;20114;-91
2022/06/18 04:52:44;;;;;;;10.90;7.80;;;;;;;19.97;71.11;101625.31;4964096;28;20093;-91
2022/06/18 04:55:13;;;;;;;10.27;7.25;;;;;;;19.99;71.65;101631.34;4953984;29;20027;-91
2022/06/18 04:57:38;;;;;;;9.88;7.25;;;;;;;20.00;71.14;101625.03;4950933;28;20027;-90
2022/06/18 05:00:07;;;;;;;9.73;7.53;;;;;;;20.11;70.96;101636.47;4953319;28;20034;-90
2022/06/18 05:02:34;;;;;;;11.05;7.00;;;;;;;20.14;70.76;101622.78;4951459;29;20073;-90
2022/06/18 05:05:00;;;;;;;11.95;7.47;;;;;;;20.18;71.18;101613.47;4952530;28;20487;-90
2022/06/18 05:07:26;;;;;;;13.52;8.25;;;;;;;20.26;70.95;101630.38;4954300;29;20050;-92
2022/06/18 05:09:56;;;;;;;10.50;7.82;;;;;;;20.25;70.58;101619.84;4952472;28;20065;-90
2022/06/18 05:12:21;;;;;;;8.43;7.57;;;;;;;20.29;70.51;101613.19;4953063;29;20020;-89
2022/06/18 05:14:47;;;;;;;10.15;7.88;;;;;;;20.43;70.53;101628.69;4953553;28;20027;-89
2022/06/18 05:17:18;;;;;;;10.13;8.20;;;;;;;20.42;70.72;101621.69;4954142;28;20098;-90
2022/06/18 05:19:44;;;;;;;12.38;8.32;;;;;;;20.51;70.32;101630.56;4956348;28;20389;-90
2022/06/18 05:22:12;;;;;;;12.88;8.07;;;;;;;20.57;69.86;101625.41;4952214;29;20165;-89
2022/06/18 05:24:41;;;;;;;13.43;8.48;;;;;;;20.62;70.03;101632.97;4966942;28;20492;-90
2022/06/18 05:27:17;;;;;;;12.20;8.55;;;;;;;20.74;69.08;101641.53;4945996;28;20516;-89
2022/06/18 05:29:43;;;;;;;11.02;8.30;;;;;;;20.75;69.32;101644.03;4948321;28;20366;-90
2022/06/18 05:32:09;;;;;;;8.70;7.15;;;;;;;20.84;69.11;101632.41;4933832;29;20030;-90
2022/06/18 05:34:56;;;;;;;10.05;7.90;;;;;;;20.93;68.80;101647.50;4935063;29;20032;-95
2022/06/18 05:37:24;;;;;;;13.40;8.40;;;;;;;20.96;68.71;101646.31;4940141;29;20095;-91
2022/06/18 05:39:50;;;;;;;10.93;8.02;;;;;;;21.07;69.08;101653.22;4932525;29;20038;-91
2022/06/18 05:42:47;;;;;;;11.13;8.05;;;;;;;21.14;68.82;101651.56;4932500;29;20028;-93
2022/06/18 05:45:19;;;;;;;11.82;8.00;;;;;;;21.22;68.88;101648.94;4931563;29;20034;-92
2022/06/18 05:47:44;;;;;;;10.00;9.00;;;;;;;21.31;68.36;101647.97;4948915;29;20511;-92
2022/06/18 05:50:17;;;;;;;11.98;8.48;;;;;;;21.39;67.82;101650.66;4952467;28;20059;-94
2022/06/18 05:52:44;;;;;;;10.73;7.80;;;;;;;21.45;67.18;101654.53;4948835;28;20057;-93
2022/06/18 05:55:09;;;;;;;12.48;8.48;;;;;;;21.46;67.42;101648.16;4959974;28;20034;-91
2022/06/18 05:57:59;;;;;;;11.25;7.78;;;;;;;21.57;66.40;101650.50;4939063;29;20031;-93
2022/06/18 06:00:37;;;;;;;12.70;7.93;;;;;;;21.63;65.75;101643.69;4948810;29;20410;-91
2022/06/18 06:03:10;;;;;;;13.57;7.47;;;;;;;21.73;65.82;101639.84;4931354;29;20054;-92
2022/06/18 06:05:38;;;;;;;12.10;7.60;;;;;;;21.84;65.50;101646.69;4960654;28;20512;-92
2022/06/18 06:08:08;;;;;;;11.52;7.20;;;;;;;21.86;65.58;101645.50;4951663;28;20027;-91
2022/06/18 06:13:26;;;;;;;12.63;7.53;;;;;;;22.03;63.67;101629.44;4952761;29;20046;-93
2022/06/18 06:15:53;;;;;;;11.77;7.20;;;;;;;22.06;63.71;101624.63;4966987;28;20027;-92
2022/06/18 06:18:27;;;;;;;16.42;7.55;;;;;;;22.18;61.92;101625.94;4968564;28;20034;-93
2022/06/18 06:20:55;;;;;;;12.52;7.22;;;;;;;22.24;61.43;101634.28;4843639;29;20063;-92
2022/06/18 06:23:34;;;;;;;;;;;;;;;;;;;;;
2022/06/18 06:26:01;;;;;;;11.18;6.80;;;;;;;22.38;62.13;101625.53;4914039;29;20027;-92
2022/06/18 06:28:31;;;;;;;12.18;7.78;;;;;;;22.48;61.49;101635.09;4929890;29;20032;-92
2022/06/18 06:31:07;;;;;;;13.35;7.13;;;;;;;22.58;61.79;101628.69;4930296;29;20390;-93
2022/06/18 06:33:33;;;;;;;20.83;6.80;;;;;;;22.64;61.27;101622.63;4912647;29;20036;-92
2022/06/18 06:36:20;;;;;;;14.23;6.82;;;;;;;22.71;61.84;101618.22;4914543;29;20039;-93
2022/06/18 06:39:08;;;;;;;14.68;7.22;;;;;;;22.77;60.71;101620.22;4913338;29;20435;-93
2022/06/18 06:41:35;;;;;;;12.55;7.13;;;;;;;22.79;59.33;101620.88;4922468;29;20115;-93
2022/06/18 06:44:05;;;;;;;13.05;6.57;;;;;;;22.88;59.15;101627.94;4936065;29;20505;-92
2022/06/18 06:46:34;;;;;;;16.85;7.60;;;;;;;22.86;58.88;101615.69;4936499;29;20023;-92
2022/06/18 06:49:00;;;;;;;12.75;6.90;;;;;;;22.92;58.58;101621.19;4934877;29;20071;-91
2022/06/18 06:51:38;;;;;;;10.18;6.70;;;;;;;23.03;58.91;101631.53;4952192;29;20051;-93
2022/06/18 06:54:07;;;;;;;15.65;7.03;;;;;;;23.12;58.89;101627.78;4930918;29;20039;-92
2022/06/18 06:59:22;;;;;;;14.65;6.70;;;;;;;23.29;58.17;101627.72;4936028;29;20047;-91
2022/06/18 07:01:48;;;;;;;17.80;6.90;;;;;;;23.43;58.31;101632.31;4933708;29;20231;-91
2022/06/18 07:04:14;;;;;;;17.60;7.10;;;;;;;23.53;58.06;101630.22;4931275;29;20058;-91
2022/06/18 07:06:40;;;;;;;13.40;6.80;;;;;;;23.66;58.10;101635.03;4939307;29;20034;-91
2022/06/18 07:09:07;;;;;;;12.30;6.55;;;;;;;23.80;58.34;101633.41;4927564;29;20036;-91
2022/06/18 07:11:33;;;;;;;15.90;7.30;;;;;;;23.90;57.49;101639.34;4924035;29;20119;-91
2022/06/18 07:13:59;;;;;;;18.95;6.63;;;;;;;24.05;57.39;101634.88;4920035;29;20471;-91
2022/06/18 07:16:25;;;;;;;10.38;6.32;;;;;;;24.23;57.62;101632.66;4930131;29;20056;-91
2022/06/18 07:18:53;;;;;;;12.68;6.47;;;;;;;24.48;56.89;101624.38;4949023;28;20136;-91
2022/06/18 07:21:19;;;;;;;18.33;7.07;;;;;;;24.64;56.85;101618.78;4934017;29;20024;-91
2022/06/18 07:23:45;;;;;;;14.10;6.07;;;;;;;24.79;56.55;101619.59;4925192;29;20031;-91
2022/06/18 07:26:16;;;;;;;15.10;6.30;;;;;;;24.90;55.14;101621.84;4923644;29;20055;-91
2022/06/18 07:28:43;;;;;;;15.80;5.75;;;;;;;25.15;55.87;101626.91;4934937;29;20453;-90
2022/06/18 07:31:14;;;;;;;12.48;5.88;;;;;;;25.35;55.79;101619.88;4936334;29;20051;-91
2022/06/18 07:33:41;;;;;;;15.40;6.15;;;;;;;25.62;53.17;101612.91;4936448;29;20028;-91
2022/06/18 07:36:13;;;;;;;12.65;5.78;;;;;;;25.77;54.68;101621.75;4937056;29;20044;-91
2022/06/18 07:38:38;;;;;;;13.10;5.65;;;;;;;26.05;54.22;101613.69;4933455;29;20054;-91
2022/06/18 07:41:07;;;;;;;17.75;6.68;;;;;;;25.99;53.72;101613.63;4928301;29;20052;-90
2022/06/18 07:43:38;;;;;;;14.20;5.75;;;;;;;26.04;54.75;101616.59;4934919;29;20091;-92
2022/06/18 07:46:08;;;;;;;9.63;5.68;;;;;;;26.21;53.28;101613.38;4934934;29;20023;-91
2022/06/18 07:48:34;;;;;;;17.30;6.55;;;;;;;26.17;51.22;101606.72;4946000;29;20063;-92
2022/06/18 07:51:00;;;;;;;12.40;5.63;;;;;;;26.25;51.70;101608.41;4934857;29;20031;-91
2022/06/18 07:53:26;;;;;;;16.10;5.95;;;;;;;26.30;52.11;101611.34;4929521;29;20036;-91
2022/06/18 07:55:54;;;;;;;12.30;5.93;;;;;;;26.45;51.27;101603.19;4929752;29;20450;-91
2022/06/18 07:58:20;;;;;;;13.60;5.80;;;;;;;26.59;50.68;101594.13;4931258;29;20504;-91
2022/06/18 08:00:47;;;;;;;13.10;5.30;;;;;;;26.68;50.57;101598.31;4933075;29;20027;-91
2022/06/18 08:03:17;;;;;;;13.20;5.95;;;;;;;26.71;49.63;101603.28;4935013;29;20044;-91
2022/06/18 08:05:43;;;;;;;10.07;5.40;;;;;;;26.80;51.76;101593.97;4944745;29;20027;-91
2022/06/18 08:08:13;;;;;;;15.02;5.47;;;;;;;26.93;51.04;101589.69;4934674;29;20030;-91
2022/06/18 08:10:40;;;;;;;15.63;6.05;;;;;;;27.05;49.75;101593.47;4933432;29;20114;-91
2022/06/18 08:13:06;;;;;;;16.40;6.15;;;;;;;27.03;49.85;101592.84;4934272;29;20054;-91
2022/06/18 08:15:35;;;;;;;11.40;5.80;;;;;;;27.07;49.43;101591.41;4929383;29;20123;-91
2022/06/18 08:18:01;;;;;;;12.27;6.65;;;;;;;27.12;50.54;101583.53;4934816;29;20031;-91
2022/06/18 08:20:45;;;;;;;11.73;5.35;;;;;;;27.39;51.54;101585.25;4958951;29;20117;-91
2022/06/18 08:23:20;;;;;;;10.15;5.15;;;;;;;27.64;49.81;101584.69;4927714;29;20479;-91
2022/06/18 08:25:46;;;;;;;15.93;6.03;;;;;;;27.64;48.31;101581.97;4931960;29;20028;-91
2022/06/18 08:28:12;;;;;;;12.55;5.82;;;;;;;27.86;48.11;101574.47;4919145;29;20091;-92
2022/06/18 08:30:41;;;;;;;15.57;5.32;;;;;;;28.00;48.76;101571.50;4922980;29;20035;-91
2022/06/18 08:33:07;;;;;;;10.63;5.97;;;;;;;28.11;49.50;101561.13;4949254;28;20028;-92
2022/06/18 08:35:36;;;;;;;12.13;5.82;;;;;;;28.25;47.62;101560.06;4934801;29;20031;-91
2022/06/18 08:38:05;;;;;;;12.82;5.13;;;;;;;28.24;47.92;101561.09;4933171;29;20028;-91
2022/06/18 08:40:45;;;;;;;11.75;5.60;;;;;;;28.56;47.99;101562.03;4932207;29;20398;-92
2022/06/18 08:43:38;;;;;;;13.13;5.22;;;;;;;28.73;48.69;101562.38;4948599;29;20043;-91
2022/06/18 08:46:20;;;;;;;14.95;5.03;;;;;;;28.98;48.42;101568.75;4948805;29;20042;-92
2022/06/18 08:49:09;;;;;;;12.70;5.35;;;;;;;28.98;46.33;101569.56;4929548;29;20024;-91
2022/06/18 08:52:01;;;;;;;11.80;5.10;;;;;;;28.93;46.91;101563.97;4906826;29;20036;-91
2022/06/18 08:54:52;;;;;;;16.15;5.55;;;;;;;28.88;47.21;101562.97;4895556;29;20513;-92
2022/06/18 08:57:25;;;;;;;12.35;5.50;;;;;;;28.88;45.74;101563.81;4934952;29;20039;-91
2022/06/18 08:59:59;;;;;;;11.75;4.82;;;;;;;29.08;47.07;101568.25;4934164;29;20423;-91
2022/06/18 09:02:38;;;;;;;12.93;5.18;;;;;;;29.14;44.55;101559.25;4933188;29;20046;-92
2022/06/18 09:05:45;;;;;;;13.68;5.20;;;;;;;29.28;45.20;101569.81;4939179;29;20046;-92
2022/06/18 09:08:13;;;;;;;10.23;5.07;;;;;;;29.32;43.94;101568.31;4938177;29;20040;-92
2022/06/18 09:10:45;;;;;;;11.63;5.20;;;;;;;29.43;45.11;101565.94;4932411;29;20034;-92
2022/06/18 09:13:22;;;;;;;12.30;4.70;;;;;;;29.57;45.45;101573.75;4934843;29;20035;-91
2022/06/18 09:15:56;;;;;;;15.07;5.18;;;;;;;29.78;44.03;101569.84;4931934;29;20083;-92
2022/06/18 09:18:25;;;;;;;14.52;5.20;;;;;;;30.00;44.54;101574.84;4943567;29;20019;-92
2022/06/18 09:20:58;;;;;;;10.02;4.53;;;;;;;30.18;46.15;101569.47;4944692;29;20023;-91
2022/06/18 09:23:46;;;;;;;12.13;5.38;;;;;;;30.36;45.98;101571.34;4934348;29;20098;-91
2022/06/18 09:26:19;;;;;;;13.93;5.55;;;;;;;30.23;41.86;101569.63;4935220;29;20023;-92
2022/06/18 09:28:51;;;;;;;12.50;5.80;;;;;;;30.36;43.93;101572.19;4936921;29;20032;-90
2022/06/18 09:31:42;;;;;;;13.38;5.80;;;;;;;30.45;44.47;101568.13;4950142;29;20054;-92
2022/06/18 09:34:20;;;;;;;13.77;7.47;;;;;;;30.33;43.35;101567.22;4934536;29;20038;-91
2022/06/18 09:36:50;;;;;;;16.65;6.95;;;;;;;30.19;42.58;101563.81;4921814;29;20083;-92
2022/06/18 09:39:22;;;;;;;16.95;6.55;;;;;;;30.39;44.56;101565.47;4920405;29;20032;-91
2022/06/18 09:42:06;;;;;;;15.60;6.28;;;;;;;30.45;44.05;101565.41;4922283;29;20024;-92
2022/06/18 09:44:45;;;;;;;15.98;5.72;;;;;;;30.58;43.69;101558.16;4924793;29;20044;-91
2022/06/18 09:47:18;;;;;;;18.20;6.78;;;;;;;30.36;42.37;101555.88;4932954;29;20027;-92
2022/06/18 09:49:46;;;;;;;12.73;6.75;;;;;;;30.29;41.61;101551.59;4955378;28;20019;-92
2022/06/18 09:52:36;;;;;;;24.00;6.80;;;;;;;30.34;43.05;101546.31;4956956;28;20015;-92
2022/06/18 09:55:26;;;;;;;;;;;;;;;;;;;;;
2022/06/18 09:58:00;;;;;;;19.50;7.20;;;;;;;30.56;42.80;101551.06;4957587;28;20044;-92
2022/06/18 10:00:35;;;;;;;12.85;6.38;;;;;;;30.72;42.29;101548.78;4958415;28;20015;-93
2022/06/18 10:09:19;;;;;;;17.48;6.90;;;;;;;31.26;41.96;101538.84;4951860;29;20035;-93
2022/06/18 10:12:53;;;;;;;;;;;;;;;;;;;;;
2022/06/18 10:15:38;;;;;;;20.13;6.13;;;;;;;31.42;42.82;101538.16;4957344;28;20055;-94
2022/06/18 10:18:31;;;;;;;17.10;6.25;;;;;;;31.34;42.02;101535.78;4963632;28;20026;-93
2022/06/18 10:21:10;;;;;;;16.23;6.35;;;;;;;31.06;41.95;101534.50;4961134;28;20051;-94
2022/06/18 10:24:11;;;;;;;14.15;5.90;;;;;;;31.16;41.92;101531.22;4971187;28;20067;-92
2022/06/18 10:27:30;;;;;;;13.02;5.57;;;;;;;31.39;40.75;101530.47;4955734;28;20023;-93
2022/06/18 10:30:14;;;;;;;14.88;5.05;;;;;;;31.66;41.17;101528.94;4874530;29;20483;-93
2022/06/18 10:33:04;;;;;;;14.48;5.15;;;;;;;31.86;40.67;101527.78;4896808;29;20122;-93
2022/06/18 10:35:38;;;;;;;13.18;5.72;;;;;;;31.86;40.92;101525.88;4933467;29;20031;-92
2022/06/18 10:38:20;;;;;;;13.55;5.32;;;;;;;31.87;40.42;101513.94;4948146;29;20439;-91
2022/06/18 10:41:30;;;;;;;13.05;5.60;;;;;;;31.99;41.07;101519.34;4946759;29;20032;-92
2022/06/18 10:44:31;;;;;;;13.95;5.40;;;;;;;32.29;41.04;101506.41;4920499;29;20462;-91
2022/06/18 10:47:08;;;;;;;13.88;5.40;;;;;;;32.21;40.34;101504.03;4884548;29;20052;-92
2022/06/18 10:49:39;;;;;;;13.52;5.65;;;;;;;32.21;38.83;101501.31;4924186;29;20031;-92
2022/06/18 10:52:17;;;;;;;15.50;5.40;;;;;;;32.46;39.82;101505.66;4923621;29;20114;-92
2022/06/18 10:54:42;;;;;;;13.02;5.88;;;;;;;32.26;38.55;101493.28;4931893;29;20486;-92
2022/06/18 10:57:25;;;;;;;23.42;6.00;;;;;;;32.32;39.67;101496.94;4934232;29;20039;-92
2022/06/18 10:59:51;;;;;;;10.50;5.43;;;;;;;32.34;37.97;101492.06;4931310;29;20027;-92
2022/06/18 11:02:40;;;;;;;16.58;5.82;;;;;;;32.09;38.10;101495.09;4931576;29;20039;-92
2022/06/18 11:05:18;;;;;;;17.38;5.82;;;;;;;32.06;39.83;101490.13;4943510;29;20039;-91
2022/06/18 11:07:49;;;;;;;12.45;5.20;;;;;;;32.20;38.11;101474.31;4950543;29;20035;-92
2022/06/18 11:10:31;;;;;;;15.13;5.30;;;;;;;32.36;38.97;101482.56;4927673;29;20126;-91
2022/06/18 11:15:38;;;;;;;13.43;5.32;;;;;;;32.71;38.41;101466.06;4949998;23;20405;-80
2022/06/18 11:18:19;;;;;;;17.50;5.10;;;;;;;33.05;39.19;101463.41;4900795;29;20317;-80
2022/06/18 11:21:05;;;;;;;15.93;5.70;;;;;;;33.07;38.76;101454.97;4912908;29;20387;-79
2022/06/18 11:23:34;;;;;;;13.85;5.25;;;;;;;33.13;39.46;101456.72;4907805;29;20391;-83
2022/06/18 11:26:01;;;;;;;16.80;5.50;;;;;;;33.11;38.31;101454.25;4913356;29;20030;-80
2022/06/18 11:28:36;;;;;;;14.65;5.82;;;;;;;33.23;37.00;101448.72;4896851;29;20071;-80
2022/06/18 11:31:03;;;;;;;13.95;5.18;;;;;;;33.12;37.85;101444.97;4904847;29;20505;-79
2022/06/18 11:33:35;;;;;;;11.90;5.80;;;;;;;33.16;37.19;101445.31;4903078;29;20025;-81
2022/06/18 11:36:35;;;;;;;13.20;5.80;;;;;;;33.24;37.31;101436.72;4906215;29;20104;-80
2022/06/18 11:39:02;;;;;;;17.52;5.80;;;;;;;32.76;37.34;101429.91;4909226;29;20048;-80
2022/06/18 11:41:31;;;;;;;17.52;6.07;;;;;;;32.76;36.76;101434.53;4916116;29;20024;-81
2022/06/18 11:43:58;;;;;;;12.60;5.57;;;;;;;32.81;36.58;101432.72;4915883;29;20401;-80
2022/06/18 11:46:31;;;;;;;15.10;5.25;;;;;;;32.89;37.23;101421.44;4915967;29;20055;-80
2022/06/18 11:49:03;;;;;;;17.38;5.80;;;;;;;32.96;38.34;101430.28;4907879;29;20028;-80
2022/06/18 11:51:33;;;;;;;21.27;6.00;;;;;;;33.06;37.49;101429.63;4915352;29;20028;-80
2022/06/18 11:54:12;;;;;;;18.90;5.20;;;;;;;33.24;39.08;101409.44;4902950;29;20024;-79
2022/06/18 11:56:48;;;;;;;16.73;5.00;;;;;;;33.36;37.18;101418.38;4913251;29;20474;-80
2022/06/18 11:59:27;;;;;;;20.27;5.53;;;;;;;33.58;36.25;101413.75;4916256;29;20044;-80
2022/06/18 12:01:58;;;;;;;13.80;5.20;;;;;;;33.59;37.40;101407.22;4903621;29;20037;-81
2022/06/18 12:04:37;;;;;;;14.77;5.15;;;;;;;33.80;37.98;101408.31;4902235;29;20030;-81
2022/06/18 12:07:14;;;;;;;13.18;5.13;;;;;;;33.93;38.47;101407.97;4910171;29;20028;-80
2022/06/18 12:09:41;;;;;;;17.83;5.40;;;;;;;33.91;36.57;101403.84;4916285;29;20395;-81
2022/06/18 12:12:24;;;;;;;13.85;5.47;;;;;;;34.01;37.17;101403.94;4915578;29;20032;-80